Terminal Aerodrome Forecast
Issued by NWS Goodland, KS

Home | Current Version | Previous Version | Text Only | Print | Product List | Glossary On
Versions: 1 2 3 4 5 6 7 8 9 10 11 12 13 14 15 16 17 18 19 20 21
779
FTUS43 KGLD 220529
TAFGLD
TAF
KGLD 220529Z 2206/2306 18016G24KT P6SM FEW250 WS020/21040KT
     FM221800 19026G34KT P6SM FEW090 FEW250 WS010/20020KT
     FM230000 17017KT P6SM SCT150 WS020/18040KT=

USA.gov is the U.S. government's official web portal to all federal, state and local government web resources and services.